sensor_id;sensor_type;location;lat;lon;timestamp;temperature;humidity
79140;HTU21D;68546;59.142;37.948;2023-05-10T00:00:39;14.05;42.75
79140;HTU21D;68546;59.142;37.948;2023-05-10T00:03:06;14.03;42.90
79140;HTU21D;68546;59.142;37.948;2023-05-10T00:05:32;14.03;42.95
79140;HTU21D;68546;59.142;37.948;2023-05-10T00:07:58;14.00;43.10
79140;HTU21D;68546;59.142;37.948;2023-05-10T00:10:25;14.00;43.17
79140;HTU21D;68546;59.142;37.948;2023-05-10T00:12:51;13.99;43.48
79140;HTU21D;68546;59.142;37.948;2023-05-10T00:15:18;13.97;43.61
79140;HTU21D;68546;59.142;37.948;2023-05-10T00:17:44;13.96;43.80
79140;HTU21D;68546;59.142;37.948;2023-05-10T00:20:11;13.94;43.93
79140;HTU21D;68546;59.142;37.948;2023-05-10T00:22:37;13.92;44.03
79140;HTU21D;68546;59.142;37.948;2023-05-10T00:25:08;13.91;44.09
79140;HTU21D;68546;59.142;37.948;2023-05-10T00:27:36;13.89;43.99
79140;HTU21D;68546;59.142;37.948;2023-05-10T00:30:02;13.89;43.99
79140;HTU21D;68546;59.142;37.948;2023-05-10T00:32:30;13.86;44.13
79140;HTU21D;68546;59.142;37.948;2023-05-10T00:34:57;13.84;44.19
79140;HTU21D;68546;59.142;37.948;2023-05-10T00:37:23;13.83;44.25
79140;HTU21D;68546;59.142;37.948;2023-05-10T00:39:50;13.82;44.22
79140;HTU21D;68546;59.142;37.948;2023-05-10T00:42:16;13.80;44.19
79140;HTU21D;68546;59.142;37.948;2023-05-10T00:44:43;13.79;44.15
79140;HTU21D;68546;59.142;37.948;2023-05-10T00:47:09;13.77;44.12
79140;HTU21D;68546;59.142;37.948;2023-05-10T00:49:36;13.75;44.15
79140;HTU21D;68546;59.142;37.948;2023-05-10T00:52:03;13.73;44.14
79140;HTU21D;68546;59.142;37.948;2023-05-10T00:54:30;13.71;44.13
79140;HTU21D;68546;59.142;37.948;2023-05-10T00:56:56;13.70;44.03
79140;HTU21D;68546;59.142;37.948;2023-05-10T00:59:22;13.69;43.88
79140;HTU21D;68546;59.142;37.948;2023-05-10T01:01:49;13.66;43.77
79140;HTU21D;68546;59.142;37.948;2023-05-10T01:04:17;13.66;43.77
79140;HTU21D;68546;59.142;37.948;2023-05-10T01:06:45;13.64;43.82
79140;HTU21D;68546;59.142;37.948;2023-05-10T01:09:12;13.63;43.88
79140;HTU21D;68546;59.142;37.948;2023-05-10T01:11:39;13.62;43.99
79140;HTU21D;68546;59.142;37.948;2023-05-10T01:14:06;13.59;44.01
79140;HTU21D;68546;59.142;37.948;2023-05-10T01:16:36;13.58;44.00
79140;HTU21D;68546;59.142;37.948;2023-05-10T01:19:05;13.56;44.00
79140;HTU21D;68546;59.142;37.948;2023-05-10T01:21:45;13.53;44.06
79140;HTU21D;68546;59.142;37.948;2023-05-10T01:24:22;13.53;44.18
79140;HTU21D;68546;59.142;37.948;2023-05-10T01:32:38;13.48;43.97
79140;HTU21D;68546;59.142;37.948;2023-05-10T01:35:14;13.45;43.93
79140;HTU21D;68546;59.142;37.948;2023-05-10T01:37:46;13.45;43.96
79140;HTU21D;68546;59.142;37.948;2023-05-10T01:43:26;13.44;43.94
79140;HTU21D;68546;59.142;37.948;2023-05-10T01:46:24;13.45;43.88
79140;HTU21D;68546;59.142;37.948;2023-05-10T01:48:55;13.45;44.08
79140;HTU21D;68546;59.142;37.948;2023-05-10T01:51:27;13.48;43.90
79140;HTU21D;68546;59.142;37.948;2023-05-10T01:54:00;13.50;43.96
79140;HTU21D;68546;59.142;37.948;2023-05-10T01:56:30;13.52;44.07
79140;HTU21D;68546;59.142;37.948;2023-05-10T01:58:58;13.58;43.08
79140;HTU21D;68546;59.142;37.948;2023-05-10T02:01:27;13.60;43.22
79140;HTU21D;68546;59.142;37.948;2023-05-10T02:03:55;13.64;43.55
79140;HTU21D;68546;59.142;37.948;2023-05-10T02:06:27;13.66;43.71
79140;HTU21D;68546;59.142;37.948;2023-05-10T02:08:54;13.69;43.74
79140;HTU21D;68546;59.142;37.948;2023-05-10T02:11:21;13.73;43.17
79140;HTU21D;68546;59.142;37.948;2023-05-10T02:13:50;13.76;42.15
79140;HTU21D;68546;59.142;37.948;2023-05-10T02:16:18;13.79;42.58
79140;HTU21D;68546;59.142;37.948;2023-05-10T02:18:48;13.81;42.82
79140;HTU21D;68546;59.142;37.948;2023-05-10T02:21:17;13.85;43.03
79140;HTU21D;68546;59.142;37.948;2023-05-10T02:23:45;13.86;43.22
79140;HTU21D;68546;59.142;37.948;2023-05-10T02:26:13;13.90;43.55
79140;HTU21D;68546;59.142;37.948;2023-05-10T02:28:40;13.92;43.74
79140;HTU21D;68546;59.142;37.948;2023-05-10T02:31:08;13.95;43.97
79140;HTU21D;68546;59.142;37.948;2023-05-10T02:33:41;13.96;44.16
79140;HTU21D;68546;59.142;37.948;2023-05-10T02:36:09;13.98;44.21
79140;HTU21D;68546;59.142;37.948;2023-05-10T02:38:36;14.00;44.19
79140;HTU21D;68546;59.142;37.948;2023-05-10T02:41:05;14.03;44.12
79140;HTU21D;68546;59.142;37.948;2023-05-10T02:43:33;14.05;44.29
79140;HTU21D;68546;59.142;37.948;2023-05-10T02:46:00;14.06;43.45
79140;HTU21D;68546;59.142;37.948;2023-05-10T02:48:26;14.08;43.74
79140;HTU21D;68546;59.142;37.948;2023-05-10T02:50:55;14.09;43.80
79140;HTU21D;68546;59.142;37.948;2023-05-10T02:53:31;14.13;43.74
79140;HTU21D;68546;59.142;37.948;2023-05-10T02:56:00;14.17;43.86
79140;HTU21D;68546;59.142;37.948;2023-05-10T02:58:29;14.18;43.66
79140;HTU21D;68546;59.142;37.948;2023-05-10T03:00:56;14.23;42.40
79140;HTU21D;68546;59.142;37.948;2023-05-10T03:03:22;14.24;41.23
79140;HTU21D;68546;59.142;37.948;2023-05-10T03:05:50;14.27;40.86
79140;HTU21D;68546;59.142;37.948;2023-05-10T03:08:16;14.29;40.39
79140;HTU21D;68546;59.142;37.948;2023-05-10T03:16:35;14.40;39.09
79140;HTU21D;68546;59.142;37.948;2023-05-10T03:19:11;14.43;38.36
79140;HTU21D;68546;59.142;37.948;2023-05-10T03:21:42;14.45;37.66
79140;HTU21D;68546;59.142;37.948;2023-05-10T03:24:12;14.48;37.37
79140;HTU21D;68546;59.142;37.948;2023-05-10T03:26:43;14.50;37.12
79140;HTU21D;68546;59.142;37.948;2023-05-10T03:29:15;14.54;36.96
79140;HTU21D;68546;59.142;37.948;2023-05-10T03:31:43;14.56;36.60
79140;HTU21D;68546;59.142;37.948;2023-05-10T03:34:09;14.63;36.37
79140;HTU21D;68546;59.142;37.948;2023-05-10T03:36:36;14.67;36.27
79140;HTU21D;68546;59.142;37.948;2023-05-10T03:39:02;14.71;35.73
79140;HTU21D;68546;59.142;37.948;2023-05-10T03:41:29;14.74;35.35
79140;HTU21D;68546;59.142;37.948;2023-05-10T03:43:55;14.77;35.01
79140;HTU21D;68546;59.142;37.948;2023-05-10T03:46:22;14.79;34.57
79140;HTU21D;68546;59.142;37.948;2023-05-10T03:48:48;14.79;34.07
79140;HTU21D;68546;59.142;37.948;2023-05-10T03:51:15;14.80;33.98
79140;HTU21D;68546;59.142;37.948;2023-05-10T03:53:41;14.80;33.73
79140;HTU21D;68546;59.142;37.948;2023-05-10T03:56:07;14.81;33.55
79140;HTU21D;68546;59.142;37.948;2023-05-10T03:58:34;14.79;33.54
79140;HTU21D;68546;59.142;37.948;2023-05-10T04:01:01;14.81;33.47
79140;HTU21D;68546;59.142;37.948;2023-05-10T04:03:27;14.80;33.41
79140;HTU21D;68546;59.142;37.948;2023-05-10T04:06:00;14.84;33.46
79140;HTU21D;68546;59.142;37.948;2023-05-10T04:08:27;14.86;33.54
79140;HTU21D;68546;59.142;37.948;2023-05-10T04:10:54;14.92;33.63
79140;HTU21D;68546;59.142;37.948;2023-05-10T04:13:21;14.95;34.21
79140;HTU21D;68546;59.142;37.948;2023-05-10T04:15:48;15.00;34.72
79140;HTU21D;68546;59.142;37.948;2023-05-10T04:18:14;15.07;34.82
79140;HTU21D;68546;59.142;37.948;2023-05-10T04:20:41;15.17;34.47
79140;HTU21D;68546;59.142;37.948;2023-05-10T04:23:07;15.26;34.76
79140;HTU21D;68546;59.142;37.948;2023-05-10T04:25:34;15.36;34.98
79140;HTU21D;68546;59.142;37.948;2023-05-10T04:28:01;15.46;34.38
79140;HTU21D;68546;59.142;37.948;2023-05-10T04:30:27;15.55;33.54
79140;HTU21D;68546;59.142;37.948;2023-05-10T04:32:55;15.60;33.15
79140;HTU21D;68546;59.142;37.948;2023-05-10T04:35:21;15.70;32.91
79140;HTU21D;68546;59.142;37.948;2023-05-10T04:37:47;15.77;32.61
79140;HTU21D;68546;59.142;37.948;2023-05-10T04:40:14;15.84;32.67
79140;HTU21D;68546;59.142;37.948;2023-05-10T04:42:40;15.95;32.39
79140;HTU21D;68546;59.142;37.948;2023-05-10T04:45:07;16.06;32.52
79140;HTU21D;68546;59.142;37.948;2023-05-10T04:47:35;16.18;33.05
79140;HTU21D;68546;59.142;37.948;2023-05-10T04:50:03;16.31;32.38
79140;HTU21D;68546;59.142;37.948;2023-05-10T04:52:30;16.42;32.16
79140;HTU21D;68546;59.142;37.948;2023-05-10T04:54:56;16.51;31.73
79140;HTU21D;68546;59.142;37.948;2023-05-10T04:57:22;16.59;31.49
79140;HTU21D;68546;59.142;37.948;2023-05-10T04:59:49;16.67;31.16
79140;HTU21D;68546;59.142;37.948;2023-05-10T05:02:15;16.75;31.03
79140;HTU21D;68546;59.142;37.948;2023-05-10T05:04:41;16.86;30.61
79140;HTU21D;68546;59.142;37.948;2023-05-10T05:07:08;16.92;30.49
79140;HTU21D;68546;59.142;37.948;2023-05-10T05:09:35;17.01;30.60
79140;HTU21D;68546;59.142;37.948;2023-05-10T05:12:02;17.09;30.69
79140;HTU21D;68546;59.142;37.948;2023-05-10T05:14:28;17.16;30.78
79140;HTU21D;68546;59.142;37.948;2023-05-10T05:16:54;17.23;30.74
79140;HTU21D;68546;59.142;37.948;2023-05-10T05:19:21;17.32;30.61
79140;HTU21D;68546;59.142;37.948;2023-05-10T05:21:48;17.44;30.54
79140;HTU21D;68546;59.142;37.948;2023-05-10T05:24:16;17.54;30.46
79140;HTU21D;68546;59.142;37.948;2023-05-10T05:26:42;17.67;30.32
79140;HTU21D;68546;59.142;37.948;2023-05-10T05:29:08;17.78;29.84
79140;HTU21D;68546;59.142;37.948;2023-05-10T05:31:35;17.89;29.53
79140;HTU21D;68546;59.142;37.948;2023-05-10T05:34:02;17.97;29.35
79140;HTU21D;68546;59.142;37.948;2023-05-10T05:36:28;18.06;29.01
79140;HTU21D;68546;59.142;37.948;2023-05-10T05:38:54;18.14;28.89
79140;HTU21D;68546;59.142;37.948;2023-05-10T05:41:21;18.22;28.48
79140;HTU21D;68546;59.142;37.948;2023-05-10T05:43:47;18.29;28.23
79140;HTU21D;68546;59.142;37.948;2023-05-10T05:46:14;18.33;27.98
79140;HTU21D;68546;59.142;37.948;2023-05-10T05:48:40;18.36;27.90
79140;HTU21D;68546;59.142;37.948;2023-05-10T05:51:06;18.39;27.84
79140;HTU21D;68546;59.142;37.948;2023-05-10T05:53:33;18.46;28.01
79140;HTU21D;68546;59.142;37.948;2023-05-10T05:56:00;18.52;27.90
79140;HTU21D;68546;59.142;37.948;2023-05-10T05:58:27;18.61;28.02
79140;HTU21D;68546;59.142;37.948;2023-05-10T06:00:55;18.66;27.84
79140;HTU21D;68546;59.142;37.948;2023-05-10T06:03:21;18.71;27.83
79140;HTU21D;68546;59.142;37.948;2023-05-10T06:05:47;18.76;27.69
79140;HTU21D;68546;59.142;37.948;2023-05-10T06:08:14;18.81;27.66
79140;HTU21D;68546;59.142;37.948;2023-05-10T06:10:40;18.82;27.59
79140;HTU21D;68546;59.142;37.948;2023-05-10T06:13:07;18.88;27.67
79140;HTU21D;68546;59.142;37.948;2023-05-10T06:15:33;18.95;27.79
79140;HTU21D;68546;59.142;37.948;2023-05-10T06:18:00;19.01;27.74
79140;HTU21D;68546;59.142;37.948;2023-05-10T06:20:27;19.06;27.65
79140;HTU21D;68546;59.142;37.948;2023-05-10T06:22:53;19.10;27.58
79140;HTU21D;68546;59.142;37.948;2023-05-10T06:25:21;19.12;27.70
79140;HTU21D;68546;59.142;37.948;2023-05-10T06:27:47;19.13;27.62
79140;HTU21D;68546;59.142;37.948;2023-05-10T06:30:13;19.13;27.64
79140;HTU21D;68546;59.142;37.948;2023-05-10T06:32:41;19.16;27.79
79140;HTU21D;68546;59.142;37.948;2023-05-10T06:35:09;19.21;27.72
79140;HTU21D;68546;59.142;37.948;2023-05-10T06:37:36;19.23;27.55
79140;HTU21D;68546;59.142;37.948;2023-05-10T06:40:02;19.26;27.52
79140;HTU21D;68546;59.142;37.948;2023-05-10T06:42:29;19.30;27.60
79140;HTU21D;68546;59.142;37.948;2023-05-10T06:44:56;19.33;27.49
79140;HTU21D;68546;59.142;37.948;2023-05-10T06:47:22;19.37;27.32
79140;HTU21D;68546;59.142;37.948;2023-05-10T06:49:48;19.38;27.36
79140;HTU21D;68546;59.142;37.948;2023-05-10T06:52:14;19.37;27.43
79140;HTU21D;68546;59.142;37.948;2023-05-10T06:54:41;19.38;27.37
79140;HTU21D;68546;59.142;37.948;2023-05-10T06:57:07;19.40;27.26
79140;HTU21D;68546;59.142;37.948;2023-05-10T06:59:34;19.41;27.12
79140;HTU21D;68546;59.142;37.948;2023-05-10T07:02:00;19.42;27.23
79140;HTU21D;68546;59.142;37.948;2023-05-10T07:04:27;19.41;27.11
79140;HTU21D;68546;59.142;37.948;2023-05-10T07:06:54;19.42;26.84
79140;HTU21D;68546;59.142;37.948;2023-05-10T07:09:21;19.41;26.66
79140;HTU21D;68546;59.142;37.948;2023-05-10T07:11:50;19.40;26.56
79140;HTU21D;68546;59.142;37.948;2023-05-10T07:14:16;19.38;26.22
79140;HTU21D;68546;59.142;37.948;2023-05-10T07:16:43;19.36;26.06
79140;HTU21D;68546;59.142;37.948;2023-05-10T07:19:10;19.33;26.04
79140;HTU21D;68546;59.142;37.948;2023-05-10T07:21:37;19.31;25.92
79140;HTU21D;68546;59.142;37.948;2023-05-10T07:24:04;19.30;25.98
79140;HTU21D;68546;59.142;37.948;2023-05-10T07:26:31;19.30;25.94
79140;HTU21D;68546;59.142;37.948;2023-05-10T07:28:58;19.31;25.70
79140;HTU21D;68546;59.142;37.948;2023-05-10T07:31:25;19.30;25.32
79140;HTU21D;68546;59.142;37.948;2023-05-10T07:33:53;19.32;24.75
79140;HTU21D;68546;59.142;37.948;2023-05-10T07:36:21;19.33;24.61
79140;HTU21D;68546;59.142;37.948;2023-05-10T07:38:48;19.35;24.69
79140;HTU21D;68546;59.142;37.948;2023-05-10T07:41:15;19.40;24.36
79140;HTU21D;68546;59.142;37.948;2023-05-10T07:43:42;19.43;23.94
79140;HTU21D;68546;59.142;37.948;2023-05-10T07:46:08;19.45;23.47
79140;HTU21D;68546;59.142;37.948;2023-05-10T07:48:37;19.50;22.95
79140;HTU21D;68546;59.142;37.948;2023-05-10T07:51:04;19.54;22.79
79140;HTU21D;68546;59.142;37.948;2023-05-10T07:53:33;19.57;22.82
79140;HTU21D;68546;59.142;37.948;2023-05-10T07:56:23;19.61;22.97
79140;HTU21D;68546;59.142;37.948;2023-05-10T07:58:51;19.62;22.59
79140;HTU21D;68546;59.142;37.948;2023-05-10T08:01:18;19.67;22.30
79140;HTU21D;68546;59.142;37.948;2023-05-10T08:03:44;19.70;22.13
79140;HTU21D;68546;59.142;37.948;2023-05-10T08:06:11;19.74;21.92
79140;HTU21D;68546;59.142;37.948;2023-05-10T08:08:38;19.80;21.74
79140;HTU21D;68546;59.142;37.948;2023-05-10T08:11:04;19.83;21.57
79140;HTU21D;68546;59.142;37.948;2023-05-10T08:13:31;19.83;21.63
79140;HTU21D;68546;59.142;37.948;2023-05-10T08:15:58;19.84;21.63
79140;HTU21D;68546;59.142;37.948;2023-05-10T08:18:26;19.85;21.26
79140;HTU21D;68546;59.142;37.948;2023-05-10T08:20:53;19.86;21.33
79140;HTU21D;68546;59.142;37.948;2023-05-10T08:23:22;19.88;20.88
79140;HTU21D;68546;59.142;37.948;2023-05-10T08:25:49;19.87;20.45
79140;HTU21D;68546;59.142;37.948;2023-05-10T08:28:16;19.88;20.38
79140;HTU21D;68546;59.142;37.948;2023-05-10T08:30:44;19.89;20.49
79140;HTU21D;68546;59.142;37.948;2023-05-10T08:33:11;19.91;20.35
79140;HTU21D;68546;59.142;37.948;2023-05-10T08:35:38;19.94;20.35
79140;HTU21D;68546;59.142;37.948;2023-05-10T08:38:05;19.97;20.71
79140;HTU21D;68546;59.142;37.948;2023-05-10T08:40:32;20.00;20.47
79140;HTU21D;68546;59.142;37.948;2023-05-10T08:43:06;20.03;20.49
79140;HTU21D;68546;59.142;37.948;2023-05-10T08:45:41;20.05;20.32
79140;HTU21D;68546;59.142;37.948;2023-05-10T08:48:10;20.10;20.21
79140;HTU21D;68546;59.142;37.948;2023-05-10T08:50:40;20.12;20.23
79140;HTU21D;68546;59.142;37.948;2023-05-10T08:53:12;20.15;20.05
79140;HTU21D;68546;59.142;37.948;2023-05-10T08:55:40;20.16;20.09
79140;HTU21D;68546;59.142;37.948;2023-05-10T08:58:09;20.17;20.26
79140;HTU21D;68546;59.142;37.948;2023-05-10T09:00:36;20.21;20.30
79140;HTU21D;68546;59.142;37.948;2023-05-10T09:03:05;20.25;20.29
79140;HTU21D;68546;59.142;37.948;2023-05-10T09:05:33;20.29;20.03
79140;HTU21D;68546;59.142;37.948;2023-05-10T09:08:01;20.32;19.84
79140;HTU21D;68546;59.142;37.948;2023-05-10T09:10:27;20.34;19.79
79140;HTU21D;68546;59.142;37.948;2023-05-10T09:12:57;20.40;19.79
79140;HTU21D;68546;59.142;37.948;2023-05-10T09:15:24;20.42;19.98
79140;HTU21D;68546;59.142;37.948;2023-05-10T09:17:50;20.45;20.05
79140;HTU21D;68546;59.142;37.948;2023-05-10T09:20:17;20.47;20.02
79140;HTU21D;68546;59.142;37.948;2023-05-10T09:22:44;20.47;19.95
79140;HTU21D;68546;59.142;37.948;2023-05-10T09:25:13;20.46;19.57
79140;HTU21D;68546;59.142;37.948;2023-05-10T09:27:45;20.49;20.02
79140;HTU21D;68546;59.142;37.948;2023-05-10T09:30:26;20.50;20.33
79140;HTU21D;68546;59.142;37.948;2023-05-10T09:32:54;20.54;20.59
79140;HTU21D;68546;59.142;37.948;2023-05-10T09:35:25;20.59;20.68
79140;HTU21D;68546;59.142;37.948;2023-05-10T09:37:54;20.64;20.78
79140;HTU21D;68546;59.142;37.948;2023-05-10T09:40:22;20.70;20.85
79140;HTU21D;68546;59.142;37.948;2023-05-10T09:42:57;20.75;20.74
79140;HTU21D;68546;59.142;37.948;2023-05-10T09:45:26;20.81;20.56
79140;HTU21D;68546;59.142;37.948;2023-05-10T09:47:53;20.86;20.48
79140;HTU21D;68546;59.142;37.948;2023-05-10T09:50:20;20.91;20.36
79140;HTU21D;68546;59.142;37.948;2023-05-10T09:52:51;20.94;20.06
79140;HTU21D;68546;59.142;37.948;2023-05-10T09:55:23;20.93;20.46
79140;HTU21D;68546;59.142;37.948;2023-05-10T09:57:59;20.96;20.48
79140;HTU21D;68546;59.142;37.948;2023-05-10T10:00:27;21.00;20.40
79140;HTU21D;68546;59.142;37.948;2023-05-10T10:02:57;21.04;20.54
79140;HTU21D;68546;59.142;37.948;2023-05-10T10:05:31;21.10;20.38
79140;HTU21D;68546;59.142;37.948;2023-05-10T10:07:59;21.16;20.40
79140;HTU21D;68546;59.142;37.948;2023-05-10T10:10:26;21.21;20.41
79140;HTU21D;68546;59.142;37.948;2023-05-10T10:12:54;21.30;20.34
79140;HTU21D;68546;59.142;37.948;2023-05-10T10:15:23;21.37;20.34
79140;HTU21D;68546;59.142;37.948;2023-05-10T10:17:51;21.45;20.28
79140;HTU21D;68546;59.142;37.948;2023-05-10T10:20:20;21.52;20.47
79140;HTU21D;68546;59.142;37.948;2023-05-10T10:22:49;21.62;20.34
79140;HTU21D;68546;59.142;37.948;2023-05-10T10:25:16;21.72;20.40
79140;HTU21D;68546;59.142;37.948;2023-05-10T10:27:56;21.83;20.50
79140;HTU21D;68546;59.142;37.948;2023-05-10T10:36:04;22.28;20.21
79140;HTU21D;68546;59.142;37.948;2023-05-10T10:41:36;22.53;19.84
79140;HTU21D;68546;59.142;37.948;2023-05-10T10:44:25;22.63;19.60
79140;HTU21D;68546;59.142;37.948;2023-05-10T10:55:03;23.03;19.15
79140;HTU21D;68546;59.142;37.948;2023-05-10T10:57:53;23.10;18.99
79140;HTU21D;68546;59.142;37.948;2023-05-10T11:00:35;23.15;18.82
79140;HTU21D;68546;59.142;37.948;2023-05-10T11:03:05;23.23;18.74
79140;HTU21D;68546;59.142;37.948;2023-05-10T11:05:41;23.32;18.92
79140;HTU21D;68546;59.142;37.948;2023-05-10T11:08:13;23.41;18.86
79140;HTU21D;68546;59.142;37.948;2023-05-10T11:10:52;23.52;18.67
79140;HTU21D;68546;59.142;37.948;2023-05-10T11:13:34;23.61;18.66
79140;HTU21D;68546;59.142;37.948;2023-05-10T11:16:29;23.69;18.44
79140;HTU21D;68546;59.142;37.948;2023-05-10T11:19:11;23.72;17.96
79140;HTU21D;68546;59.142;37.948;2023-05-10T11:22:11;23.73;18.06
79140;HTU21D;68546;59.142;37.948;2023-05-10T11:24:56;23.72;17.90
79140;HTU21D;68546;59.142;37.948;2023-05-10T11:27:24;23.71;17.71
79140;HTU21D;68546;59.142;37.948;2023-05-10T11:29:53;23.72;17.68
79140;HTU21D;68546;59.142;37.948;2023-05-10T11:32:19;23.74;17.57
79140;HTU21D;68546;59.142;37.948;2023-05-10T11:34:47;23.77;17.36
79140;HTU21D;68546;59.142;37.948;2023-05-10T11:37:14;23.77;17.61
79140;HTU21D;68546;59.142;37.948;2023-05-10T11:39:45;23.75;17.62
79140;HTU21D;68546;59.142;37.948;2023-05-10T11:42:14;23.72;17.49
79140;HTU21D;68546;59.142;37.948;2023-05-10T11:44:41;23.67;17.48
79140;HTU21D;68546;59.142;37.948;2023-05-10T11:47:09;23.60;17.09
79140;HTU21D;68546;59.142;37.948;2023-05-10T11:49:35;23.55;17.06
79140;HTU21D;68546;59.142;37.948;2023-05-10T11:52:05;23.52;17.16
79140;HTU21D;68546;59.142;37.948;2023-05-10T11:54:32;23.53;17.35
79140;HTU21D;68546;59.142;37.948;2023-05-10T11:57:01;23.56;17.53
79140;HTU21D;68546;59.142;37.948;2023-05-10T11:59:27;23.60;17.45
79140;HTU21D;68546;59.142;37.948;2023-05-10T12:01:53;23.65;17.45
79140;HTU21D;68546;59.142;37.948;2023-05-10T12:04:20;23.67;17.55
79140;HTU21D;68546;59.142;37.948;2023-05-10T12:06:47;23.67;17.43
79140;HTU21D;68546;59.142;37.948;2023-05-10T12:09:14;23.67;17.32
79140;HTU21D;68546;59.142;37.948;2023-05-10T12:11:40;23.64;17.23
79140;HTU21D;68546;59.142;37.948;2023-05-10T12:14:08;23.59;17.18
79140;HTU21D;68546;59.142;37.948;2023-05-10T12:16:35;23.57;17.15
79140;HTU21D;68546;59.142;37.948;2023-05-10T12:19:02;23.57;17.09
79140;HTU21D;68546;59.142;37.948;2023-05-10T12:21:29;23.59;17.10
79140;HTU21D;68546;59.142;37.948;2023-05-10T12:24:01;23.60;17.02
79140;HTU21D;68546;59.142;37.948;2023-05-10T12:26:28;23.60;17.02
79140;HTU21D;68546;59.142;37.948;2023-05-10T12:29:01;23.58;16.86
79140;HTU21D;68546;59.142;37.948;2023-05-10T12:31:58;23.56;16.95
79140;HTU21D;68546;59.142;37.948;2023-05-10T12:34:35;23.51;16.88
79140;HTU21D;68546;59.142;37.948;2023-05-10T12:37:04;23.46;16.54
79140;HTU21D;68546;59.142;37.948;2023-05-10T12:39:43;23.38;16.51
79140;HTU21D;68546;59.142;37.948;2023-05-10T12:42:10;23.34;16.34
79140;HTU21D;68546;59.142;37.948;2023-05-10T12:44:37;23.28;16.48
79140;HTU21D;68546;59.142;37.948;2023-05-10T12:47:03;23.24;16.58
79140;HTU21D;68546;59.142;37.948;2023-05-10T12:49:30;23.23;16.57
79140;HTU21D;68546;59.142;37.948;2023-05-10T12:51:56;23.21;16.11
79140;HTU21D;68546;59.142;37.948;2023-05-10T12:54:23;23.14;16.06
79140;HTU21D;68546;59.142;37.948;2023-05-10T12:56:50;23.06;16.22
79140;HTU21D;68546;59.142;37.948;2023-05-10T12:59:17;23.00;16.16
79140;HTU21D;68546;59.142;37.948;2023-05-10T13:01:44;22.92;16.02
79140;HTU21D;68546;59.142;37.948;2023-05-10T13:04:10;22.84;16.13
79140;HTU21D;68546;59.142;37.948;2023-05-10T13:06:37;22.80;16.06
79140;HTU21D;68546;59.142;37.948;2023-05-10T13:09:04;22.75;16.15
79140;HTU21D;68546;59.142;37.948;2023-05-10T13:11:30;22.71;16.32
79140;HTU21D;68546;59.142;37.948;2023-05-10T13:13:57;22.75;16.43
79140;HTU21D;68546;59.142;37.948;2023-05-10T13:16:24;22.78;16.55
79140;HTU21D;68546;59.142;37.948;2023-05-10T13:18:51;22.82;16.65
79140;HTU21D;68546;59.142;37.948;2023-05-10T13:21:18;22.90;16.82
79140;HTU21D;68546;59.142;37.948;2023-05-10T13:23:45;22.95;16.87
79140;HTU21D;68546;59.142;37.948;2023-05-10T13:26:14;22.97;16.64
79140;HTU21D;68546;59.142;37.948;2023-05-10T13:28:40;22.99;16.54
79140;HTU21D;68546;59.142;37.948;2023-05-10T13:31:07;22.98;16.51
79140;HTU21D;68546;59.142;37.948;2023-05-10T13:33:35;22.98;16.23
79140;HTU21D;68546;59.142;37.948;2023-05-10T13:36:02;22.98;16.41
79140;HTU21D;68546;59.142;37.948;2023-05-10T13:38:29;23.03;16.56
79140;HTU21D;68546;59.142;37.948;2023-05-10T13:40:55;23.08;16.63
79140;HTU21D;68546;59.142;37.948;2023-05-10T13:43:21;23.15;16.77
79140;HTU21D;68546;59.142;37.948;2023-05-10T13:45:49;23.20;16.54
79140;HTU21D;68546;59.142;37.948;2023-05-10T13:48:16;23.24;16.47
79140;HTU21D;68546;59.142;37.948;2023-05-10T13:50:43;23.25;16.41
79140;HTU21D;68546;59.142;37.948;2023-05-10T13:53:10;23.28;16.53
79140;HTU21D;68546;59.142;37.948;2023-05-10T13:55:37;23.27;16.58
79140;HTU21D;68546;59.142;37.948;2023-05-10T13:58:03;23.27;16.66
79140;HTU21D;68546;59.142;37.948;2023-05-10T14:00:30;23.28;16.64
79140;HTU21D;68546;59.142;37.948;2023-05-10T14:02:57;23.28;16.67
79140;HTU21D;68546;59.142;37.948;2023-05-10T14:05:23;23.25;16.64
79140;HTU21D;68546;59.142;37.948;2023-05-10T14:07:51;23.23;16.64
79140;HTU21D;68546;59.142;37.948;2023-05-10T14:10:17;23.17;16.37
79140;HTU21D;68546;59.142;37.948;2023-05-10T14:12:43;23.09;15.98
79140;HTU21D;68546;59.142;37.948;2023-05-10T14:15:10;22.97;15.81
79140;HTU21D;68546;59.142;37.948;2023-05-10T14:17:37;22.85;15.85
79140;HTU21D;68546;59.142;37.948;2023-05-10T14:20:05;22.76;16.20
79140;HTU21D;68546;59.142;37.948;2023-05-10T14:22:33;22.65;16.13
79140;HTU21D;68546;59.142;37.948;2023-05-10T14:25:00;22.56;16.27
79140;HTU21D;68546;59.142;37.948;2023-05-10T14:27:27;22.48;16.45
79140;HTU21D;68546;59.142;37.948;2023-05-10T14:29:53;22.43;16.61
79140;HTU21D;68546;59.142;37.948;2023-05-10T14:32:20;22.40;16.72
79140;HTU21D;68546;59.142;37.948;2023-05-10T14:34:46;22.36;16.67
79140;HTU21D;68546;59.142;37.948;2023-05-10T14:37:13;22.33;16.71
79140;HTU21D;68546;59.142;37.948;2023-05-10T14:39:41;22.32;16.79
79140;HTU21D;68546;59.142;37.948;2023-05-10T14:42:14;22.31;16.80
79140;HTU21D;68546;59.142;37.948;2023-05-10T14:44:41;22.29;16.91
79140;HTU21D;68546;59.142;37.948;2023-05-10T14:47:08;22.27;17.12
79140;HTU21D;68546;59.142;37.948;2023-05-10T14:49:34;22.27;17.25
79140;HTU21D;68546;59.142;37.948;2023-05-10T14:52:03;22.28;17.22
79140;HTU21D;68546;59.142;37.948;2023-05-10T14:54:29;22.28;17.38
79140;HTU21D;68546;59.142;37.948;2023-05-10T14:56:55;22.28;17.48
79140;HTU21D;68546;59.142;37.948;2023-05-10T14:59:22;22.26;17.51
79140;HTU21D;68546;59.142;37.948;2023-05-10T15:01:48;22.24;17.65
79140;HTU21D;68546;59.142;37.948;2023-05-10T15:04:14;22.25;17.80
79140;HTU21D;68546;59.142;37.948;2023-05-10T15:06:42;22.24;18.12
79140;HTU21D;68546;59.142;37.948;2023-05-10T15:09:08;22.22;18.30
79140;HTU21D;68546;59.142;37.948;2023-05-10T15:11:35;22.19;18.50
79140;HTU21D;68546;59.142;37.948;2023-05-10T15:14:02;22.19;18.44
79140;HTU21D;68546;59.142;37.948;2023-05-10T15:16:28;22.17;18.43
79140;HTU21D;68546;59.142;37.948;2023-05-10T15:18:55;22.11;18.47
79140;HTU21D;68546;59.142;37.948;2023-05-10T15:21:21;22.10;18.48
79140;HTU21D;68546;59.142;37.948;2023-05-10T15:23:48;22.07;18.56
79140;HTU21D;68546;59.142;37.948;2023-05-10T15:26:15;22.05;18.57
79140;HTU21D;68546;59.142;37.948;2023-05-10T15:28:42;21.99;18.66
79140;HTU21D;68546;59.142;37.948;2023-05-10T15:31:09;21.96;18.84
79140;HTU21D;68546;59.142;37.948;2023-05-10T15:33:37;21.91;19.00
79140;HTU21D;68546;59.142;37.948;2023-05-10T15:36:04;21.87;19.08
79140;HTU21D;68546;59.142;37.948;2023-05-10T15:38:32;21.81;19.25
79140;HTU21D;68546;59.142;37.948;2023-05-10T15:40:59;21.77;19.22